Rawlins Municipal Harvey Field
KRWL : now visible

Airfield :











YOU CAN JOIN US ON...

 
LOGIN :

Register | Disclaimer

   EN    FR    IT 

 









Legend :    VFR   Marginal VFR   IFR   Intensive IFR   Very Intensive IFR
Visi :
Ceiling :
>= 8 km
>= 3000ft
5 to 8 km
1000 to 3000 ft
1500m to 5 km
500 to 1000 ft
800 to 1500m
200 to 500 ft
< 800m
< 200 ft
Symbols :   Thunderstorms  Fog  Heavy snow  Heavy precipitations  Wind > 20 kt






- Airport Elevation : 6813 ft


KRWL - Rawlins Municipal Harvey Field

CURRENT METAR :
  • 292353Z AUTO 27021G28KT 10SM FEW110 25/M03 A2997 RMK AO2 PK WND 29028/2352 SLP066 60000 T02501033 10278 20239 58008

EXPIRED METARs :
  • 292253Z AUTO 26020G29KT 10SM CLR 24/M02 A2998 RMK AO2 PK WND 22039/2158 WSHFT 2155 RAB02E10 SLP072 P0000 T02441022
  • 292215Z AUTO 28017G28KT 10SM CLR 26/M02 A2998 RMK AO2 PK WND 22039/2158 WSHFT 2155 RAB02E10 P0000 T02561022
  • 292153Z AUTO 22020G33KT 10SM CLR 24/M08 A2998 RMK AO2 PK WND 22036/2130 RAB2055E2056 SLP064 P0000 T02441083
  • 292053Z AUTO 23025G37KT 10SM CLR 28/M07 A2999 RMK AO2 PK WND 20039/2027 RAB14B46E50 SLP062 P0000 60000 T02781072

TAF KRWL
Valid from the 30 at 00:00 until the 31 at 00:00 UTC


292320Z 3000/3024 27018G26KT P6SM VCSH SCT150
FM300400 29010KT P6SM SCT150
FM301200 25014KT P6SM SKC
KZDV FIR / North America



MET'MAP, your aeronautical weather chart ! - Copyright ORBIFLY December 2007 - Disclaimer

ORBIFLY MET'MAP TEAM :

Programming & Development : Alexandra Zaïnal
Original concept : Baudouin d'Aumeries
Technical & hardware support : Manuel Goepfert
Assistance : Marc-Olivier Méhu




SOURCES & CREDITS :

   NOAA       Earth
Advisory